Flight Track Log - Related Links

Times and Time Zones

All times are in EDT time to prevent confusion due to time zone crossing. See the N250S flight status page for this flight to view local times or setup timezone preferences in your user account.

Time Position Orientation Groundspeed Altitude Reporting Facility
EDT Latitude Longitude Course Direction KTS MPH feet Rate Location/Type
Fri 04:18:49 PM 46.5147 -106.9414 270° West 178 205 16,200  Level Salt Lake Center
Fri 04:19:51 PM 46.5175 -107.0072 274° West 172 198 16,300 435 Climbing Salt Lake Center
Fri 04:20:53 PM 46.5228 -107.0814 276° West 163 188 17,100 823 Climbing Salt Lake Center
Fri 04:21:55 PM 46.5253 -107.1539 273° West 168 193 18,000 878 Climbing Salt Lake Center
Fri 04:22:56 PM 46.5264 -107.2164 272° West 161 185 18,900 927 Climbing Salt Lake Center
Fri 04:23:58 PM 46.5219 -107.2800 264° West 159 183 19,900 532 Climbing Salt Lake Center
Fri 04:24:00 PM 46.4896 -106.2424 270° West  Level Estimated
Fri 04:25:00 PM 46.5119 -107.3444 257° West 163 188 20,000  Level Salt Lake Center
Fri 04:26:02 PM 46.5222 -107.3978 286° West 137 158 20,000  Level Salt Lake Center
Fri 04:27:04 PM 46.5278 -107.4564 278° West 145 167 20,000 -435 Level Salt Lake Center
Fri 04:28:06 PM 46.5264 -107.5300 268° West 155 178 19,100 -629 Descending Salt Lake Center
Fri 04:29:08 PM 46.5306 -107.6108 274° West 183 211 18,700 -341 Descending Salt Lake Center
Fri 04:30:09 PM 46.5381 -107.6772 279° West 171 197 18,400 -439 Descending Salt Lake Center
Fri 04:31:11 PM 46.5542 -107.7503 288° West 175 201 17,800 -435 Descending Salt Lake Center
Fri 04:32:13 PM 46.5694 -107.8203 288° West 182 209 17,500 -435 Descending Salt Lake Center
Fri 04:33:15 PM 46.5825 -107.8972 284° West 183 211 16,900 -387 Descending Salt Lake Center
Fri 04:34:17 PM 46.5944 -107.9692 284° West 185 213 16,700 -290 Descending Salt Lake Center
Fri 04:35:19 PM 46.6064 -108.0461 283° West 185 213 16,300 -195 Descending Salt Lake Center
Fri 04:36:20 PM 46.6189 -108.1153 285° West 180 207 16,300  Level Salt Lake Center
Fri 04:37:22 PM 46.6308 -108.1858 284° West 170 196 16,300  Level Salt Lake Center
Fri 04:38:24 PM 46.6419 -108.2531 284° West 172 198 16,300  Level Salt Lake Center
Fri 04:39:26 PM 46.6531 -108.3275 282° West 175 201 16,300  Level Salt Lake Center
Fri 04:40:27 PM 46.6625 -108.3939 282° West 172 198 16,300  Level Salt Lake Center
Fri 04:41:29 PM 46.6733 -108.4644 283° West 168 193 16,300  Level Salt Lake Center
Fri 04:42:31 PM 46.6836 -108.5331 282° West 176 203 16,300 -48 Level Salt Lake Center
Fri 04:43:33 PM 46.6972 -108.6031 286° West 177 204 16,200 -146 Descending Salt Lake Center
Fri 04:44:34 PM 46.7097 -108.6706 285° West 177 204 16,000 -98 Descending Salt Lake Center
Fri 04:45:36 PM 46.7231 -108.7361 287° West 174 200 16,000  Level Salt Lake Center
Fri 04:46:38 PM 46.7356 -108.7994 286° West 170 196 16,000  Level Salt Lake Center
Fri 04:47:40 PM 46.7511 -108.8750 287° West 167 192 16,000  Level Salt Lake Center
Fri 04:48:41 PM 46.7639 -108.9408 286° West 167 192 16,000  Level Salt Lake Center
Fri 04:49:43 PM 46.7772 -109.0072 286° West 168 193 16,000  Level Salt Lake Center
Fri 04:50:45 PM 46.7900 -109.0739 286° West 169 194 16,000  Level Salt Lake Center
Fri 04:51:47 PM 46.8028 -109.1406 286° West 170 196 16,000  Level Salt Lake Center
Fri 04:52:48 PM 46.8139 -109.2097 283° West 172 198 16,000  Level Salt Lake Center
Fri 04:53:50 PM 46.8239 -109.2758 282° West 170 196 16,000  Level Salt Lake Center
Fri 04:54:52 PM 46.8342 -109.3456 282° West 169 194 16,000  Level Salt Lake Center
Fri 04:55:54 PM 46.8461 -109.4094 285° West 166 191 16,000  Level Salt Lake Center
Fri 04:56:55 PM 46.8611 -109.4850 286° West 163 188 16,000  Level Salt Lake Center
Fri 04:57:57 PM 46.8747 -109.5483 287° West 163 188 16,000  Level Salt Lake Center
Fri 04:58:59 PM 46.8861 -109.6108 285° West 160 184 16,000  Level Salt Lake Center
Fri 05:00:00 PM 46.8958 -109.6761 282° West 163 188 16,000  Level Salt Lake Center
Fri 05:01:02 PM 46.9033 -109.7428 279° West 165 190 16,000  Level Salt Lake Center
Fri 05:02:04 PM 46.9139 -109.8100 283° West 169 194 16,000  Level Salt Lake Center
Fri 05:03:06 PM 46.9228 -109.8789 281° West 171 197 16,000  Level Salt Lake Center
Fri 05:04:07 PM 46.9344 -109.9433 285° West 168 193 16,000  Level Salt Lake Center
Fri 05:05:09 PM 46.9472 -110.0211 284° West 166 191 16,000  Level Salt Lake Center
Fri 05:06:11 PM 46.9583 -110.0847 284° West 163 188 16,000  Level Salt Lake Center
Fri 05:07:12 PM 46.9686 -110.1511 283° West 166 191 16,000  Level Salt Lake Center
Fri 05:08:14 PM 46.9803 -110.2133 285° West 163 188 16,000 -48 Level Salt Lake Center
Fri 05:09:16 PM 46.9922 -110.2758 286° West 160 184 15,900 -390 Descending Salt Lake Center
Fri 05:10:17 PM 47.0033 -110.3472 283° West 172 198 15,200 -732 Descending Salt Lake Center
Fri 05:11:19 PM 47.0167 -110.4211 285° West 183 211 14,400 -581 Descending Salt Lake Center
Fri 05:12:21 PM 47.0300 -110.5069 283° West 183 211 14,000 -194 Descending Salt Lake Center
Fri 05:13:23 PM 47.0447 -110.5739 288° West 179 206 14,000  Level Salt Lake Center
Fri 05:14:24 PM 47.0581 -110.6364 287° West 172 198 14,000  Level Salt Lake Center
Fri 05:15:26 PM 47.0661 -110.6992 281° West 163 188 14,000 48 Level Salt Lake Center
Fri 05:16:28 PM 47.0753 -110.7628 282° West 160 184 14,100  Climbing Salt Lake Center
Fri 05:17:30 PM 47.0853 -110.8300 282° West 163 188 14,000 -48 Descending Salt Lake Center
Fri 05:18:32 PM 47.0967 -110.8964 284° West 166 191 14,000  Level Salt Lake Center
Fri 05:19:33 PM 47.1097 -110.9747 284° West 166 191 14,000  Level Salt Lake Center
Fri 05:20:35 PM 47.1192 -111.0428 282° West 167 192 14,000  Level Salt Lake Center
Fri 05:21:37 PM 47.1306 -111.1103 284° West 169 194 14,000  Level Salt Lake Center
Fri 05:22:39 PM 47.1431 -111.1733 286° West 166 191 14,000  Level Salt Lake Center
Fri 05:23:41 PM 47.1539 -111.2392 284° West 165 190 14,000  Level Salt Lake Center
Fri 05:24:42 PM 47.1644 -111.3083 283° West 168 193 14,000  Level Salt Lake Center
Fri 05:25:44 PM 47.1733 -111.3783 281° West 171 197 14,000  Level Salt Lake Center
Fri 05:26:46 PM 47.1858 -111.4583 283° West 170 196 14,000  Level Salt Lake Center
Fri 05:27:48 PM 47.1950 -111.5278 281° West 171 197 14,000  Level Salt Lake Center
Fri 05:28:50 PM 47.2042 -111.5978 281° West 172 198 14,000  Level Salt Lake Center
Fri 05:29:52 PM 47.2147 -111.6664 283° West 172 198 14,000  Level Salt Lake Center
Fri 05:30:54 PM 47.2247 -111.7347 282° West 172 198 14,000 48 Level Salt Lake Center
Fri 05:31:56 PM 47.2333 -111.8050 280° West 173 199 14,100  Climbing Salt Lake Center
Fri 05:32:58 PM 47.2417 -111.8739 280° West 172 198 14,000 -49 Descending Salt Lake Center
Fri 05:33:59 PM 47.2544 -111.9561 283° West 172 198 14,000  Level Salt Lake Center
Fri 05:35:01 PM 47.2658 -112.0239 284° West 171 197 14,000 48 Level Salt Lake Center
Fri 05:36:03 PM 47.2753 -112.0892 282° West 169 194 14,100  Climbing Salt Lake Center
Fri 05:37:05 PM 47.2819 -112.1583 278° West 168 193 14,000 -48 Descending Salt Lake Center
Fri 05:38:07 PM 47.2908 -112.2283 281° West 171 197 14,000 48 Level Salt Lake Center
Fri 05:39:09 PM 47.2997 -112.2986 281° West 173 199 14,100  Climbing Salt Lake Center
Fri 05:40:11 PM 47.3086 -112.3686 281° West 174 200 14,000 -48 Descending Salt Lake Center
Fri 05:41:13 PM 47.3219 -112.4589 282° West 182 209 14,000  Level Salt Lake Center
Fri 05:42:15 PM 47.3350 -112.5322 285° West 185 213 14,000  Level Salt Lake Center
Fri 05:43:17 PM 47.3467 -112.6056 283° West 185 213 14,000  Level Salt Lake Center
Fri 05:44:19 PM 47.3589 -112.6747 285° West 181 208 14,000  Level Salt Lake Center
Fri 05:45:20 PM 47.3667 -112.7408 280° West 174 200 14,000  Level Salt Lake Center
Fri 05:46:22 PM 47.3714 -112.8056 276° West 167 192 14,000 48 Level Salt Lake Center
Fri 05:47:24 PM 47.3806 -112.8817 280° West 161 185 14,100 97 Climbing Salt Lake Center
Fri 05:48:26 PM 47.3908 -112.9431 284° West 157 181 14,200 48 Climbing Salt Lake Center
Fri 05:49:28 PM 47.4003 -113.0044 283° West 155 178 14,200  Level Salt Lake Center
Fri 05:50:29 PM 47.4092 -113.0658 282° West 154 177 14,200  Level Salt Lake Center
Fri 05:51:31 PM 47.4156 -113.1308 278° West 156 180 14,200  Level Salt Lake Center
Fri 05:52:33 PM 47.4228 -113.1958 279° West 158 182 14,200  Level Salt Lake Center
Fri 05:53:35 PM 47.4308 -113.2608 280° West 160 184 14,200  Level Salt Lake Center
Fri 05:54:37 PM 47.4378 -113.3406 277° West 161 185 14,200  Level Salt Lake Center
Fri 05:55:39 PM 47.4447 -113.4064 279° West 162 186 14,200 -49 Level Salt Lake Center
Fri 05:56:40 PM 47.4528 -113.4744 280° West 165 190 14,100 -49 Descending Salt Lake Center
Fri 05:57:42 PM 47.4600 -113.5394 279° West 164 189 14,100  Level Salt Lake Center
Fri 05:58:44 PM 47.4667 -113.6033 279° West 161 185 14,100 -48 Level Salt Lake Center
Fri 05:59:46 PM 47.4736 -113.6678 279° West 160 184 14,000 -49 Descending Salt Lake Center
Fri 06:00:47 PM 47.4808 -113.7339 279° West 161 185 14,000  Level Salt Lake Center
Fri 06:01:49 PM 47.4903 -113.8147 280° West 163 188 14,000  Level Salt Lake Center
Fri 06:02:51 PM 47.4992 -113.8811 281° West 165 190 14,000  Level Salt Lake Center
Fri 06:03:53 PM 47.5067 -113.9472 280° West 165 190 14,000  Level Salt Lake Center
Fri 06:04:54 PM 47.5156 -114.0106 282° West 161 185 14,000  Level Salt Lake Center
Fri 06:05:56 PM 47.5236 -114.0772 280° West 161 185 14,000  Level Salt Lake Center
Fri 06:06:58 PM 47.5325 -114.1444 281° West 165 190 14,000  Level Salt Lake Center
Fri 06:08:00 PM 47.5400 -114.2114 279° West 165 190 14,000  Level Salt Lake Center
Fri 06:09:01 PM 47.5494 -114.2936 280° West 167 192 14,000  Level Salt Lake Center
Fri 06:10:03 PM 47.5578 -114.3606 280° West 166 191 14,000  Level Salt Lake Center
Fri 06:11:05 PM 47.5644 -114.4286 278° West 166 191 14,000  Level Salt Lake Center
Fri 06:12:04 PM 47.5731 -114.4964 281° West 167 192 14,000  Level Seattle Center
Fri 06:13:05 PM 47.5803 -114.5619 279° West 163 188 14,000  Level Seattle Center
Fri 06:14:10 PM 47.5861 -114.6311 277° West 167 192 14,000  Level Salt Lake Center
Fri 06:15:12 PM 47.5931 -114.7000 279° West 168 193 14,000  Level Salt Lake Center
Fri 06:16:13 PM 47.5994 -114.7667 278° West 165 190 14,000  Level Salt Lake Center
Fri 06:17:15 PM 47.6053 -114.8353 277° West 166 191 14,000  Level Salt Lake Center
Fri 06:18:10 PM 47.6125 -114.9025 279° West 166 191 14,000  Level Seattle Center
Fri 06:19:11 PM 47.6197 -114.9717 279° West 168 193 14,000  Level Seattle Center
Fri 06:20:12 PM 47.6261 -115.0394 278° West 167 192 14,000  Level Seattle Center
Fri 06:21:13 PM 47.6325 -115.1089 278° West 170 196 14,000  Level Seattle Center
Fri 06:22:14 PM 47.6400 -115.1769 279° West 168 193 14,000  Level Seattle Center
Fri 06:23:15 PM 47.6475 -115.2461 279° West 170 196 14,000  Level Seattle Center
Fri 06:24:16 PM 47.6553 -115.3294 278° West 170 196 14,000 -344 Level Seattle Center
Fri 06:25:17 PM 47.6608 -115.4017 277° West 175 201 13,300 -590 Descending Seattle Center
Fri 06:26:18 PM 47.6753 -115.4769 286° West 186 214 12,800 -787 Descending Seattle Center
Fri 06:27:19 PM 47.6953 -115.5511 292° West 192 221 11,700 -1,082 Descending Seattle Center
Fri 06:28:20 PM 47.7114 -115.6325 286° West 203 234 10,600 -1,033 Descending Seattle Center
Fri 06:29:21 PM 47.7247 -115.7175 283° West 210 242 9,600 -787 Descending Seattle Center
Fri 06:30:22 PM 47.7450 -115.8050 289° West 207 238 9,000 -295 Descending Seattle Center
Fri 06:31:23 PM 47.7647 -115.8761 292° West 193 222 9,000  Level Seattle Center
Fri 06:32:24 PM 47.7786 -115.9478 286° West 185 213 9,000  Level Seattle Center
Fri 06:33:25 PM 47.7906 -116.0236 283° West 187 215 9,000  Level Seattle Center
Fri 06:34:26 PM 47.8025 -116.0964 284° West 185 213 9,000  Level Seattle Center
Fri 06:35:27 PM 47.8111 -116.1733 279° West 189 217 9,000  Level Seattle Center
Fri 06:36:28 PM 47.8183 -116.2478 278° West 185 213 9,000  Level Seattle Center
Fri 06:37:29 PM 47.8272 -116.3189 281° West 176 203 9,000 -195 Level Seattle Center
Fri 06:38:31 PM 47.8317 -116.3892 275° West 174 200 8,600 -537 Descending Seattle Center
Fri 06:39:32 PM 47.8325 -116.4678 271° West 190 219 7,900 -295 Descending Seattle Center
Fri 06:40:33 PM 47.8275 -116.5400 264° West 180 207 8,000  Climbing Seattle Center
Fri 06:41:34 PM 47.8183 -116.6172 260° West 159 183 7,900 -590 Descending Seattle Center
Fri 06:42:35 PM 47.8106 -116.6925 261° West 175 201 6,800 -934 Descending Seattle Center
Fri 06:43:36 PM 47.8036 -116.7633 262° West 182 209 6,000 -787 Descending Seattle Center
Fri 06:44:37 PM 47.7964 -116.8367 262° West 180 207 5,200 -738 Descending Seattle Center
Fri 06:45:38 PM 47.7586 -116.8558 199° South 180 207 4,500 -541 Descending Seattle Center
Fri 06:46:39 PM 47.7519 -116.7906 99° East 177 204 4,100 -197 Descending Seattle Center
Fri 06:47:40 PM 47.7881 -116.7508 36° Northeast 161 185 4,100 -344 Level Seattle Center
Fri 06:48:41 PM 47.8042 -116.8008 296° West 166 191 3,400 -689 Descending Seattle Center

Login

Don't have an account? Register now (free) for customized features, flight alerts, and more!